sensor_id;sensor_type;location;lat;lon;timestamp;pressure;altitude;pressure_sealevel;temperature;humidity
27984;BME280;15317;50.360;8.726;2023-12-20T00:03:39;99413.22;;;3.84;100.00
27984;BME280;15317;50.360;8.726;2023-12-20T00:08:44;99412.38;;;3.84;100.00
27984;BME280;15317;50.360;8.726;2023-12-20T00:13:48;99413.34;;;3.83;100.00
27984;BME280;15317;50.360;8.726;2023-12-20T00:18:53;99407.00;;;3.84;100.00
27984;BME280;15317;50.360;8.726;2023-12-20T00:23:56;99395.28;;;3.85;100.00
27984;BME280;15317;50.360;8.726;2023-12-20T00:29:01;99382.72;;;3.85;100.00
27984;BME280;15317;50.360;8.726;2023-12-20T00:34:04;99407.63;;;3.87;100.00
27984;BME280;15317;50.360;8.726;2023-12-20T00:39:08;99389.81;;;3.86;100.00
27984;BME280;15317;50.360;8.726;2023-12-20T00:44:12;99399.69;;;3.86;100.00
27984;BME280;15317;50.360;8.726;2023-12-20T00:49:15;99390.41;;;3.90;100.00
27984;BME280;15317;50.360;8.726;2023-12-20T00:54:19;99392.97;;;3.91;100.00
27984;BME280;15317;50.360;8.726;2023-12-20T00:59:23;99380.16;;;3.95;100.00
27984;BME280;15317;50.360;8.726;2023-12-20T01:04:26;99372.09;;;3.95;100.00
27984;BME280;15317;50.360;8.726;2023-12-20T01:09:30;99372.09;;;3.95;100.00
27984;BME280;15317;50.360;8.726;2023-12-20T01:14:34;99361.09;;;3.98;100.00
27984;BME280;15317;50.360;8.726;2023-12-20T01:19:38;99360.88;;;4.01;100.00
27984;BME280;15317;50.360;8.726;2023-12-20T01:24:41;99350.72;;;3.93;100.00
27984;BME280;15317;50.360;8.726;2023-12-20T01:29:46;99347.94;;;3.95;100.00
27984;BME280;15317;50.360;8.726;2023-12-20T01:34:50;99346.09;;;3.95;100.00
27984;BME280;15317;50.360;8.726;2023-12-20T01:39:53;99363.78;;;3.98;100.00
27984;BME280;15317;50.360;8.726;2023-12-20T01:44:58;99363.78;;;3.98;100.00
27984;BME280;15317;50.360;8.726;2023-12-20T01:50:02;99372.09;;;3.95;100.00
27984;BME280;15317;50.360;8.726;2023-12-20T01:55:06;99375.78;;;3.94;100.00
27984;BME280;15317;50.360;8.726;2023-12-20T02:00:17;99376.00;;;3.91;100.00
27984;BME280;15317;50.360;8.726;2023-12-20T02:05:25;99368.06;;;3.89;100.00
27984;BME280;15317;50.360;8.726;2023-12-20T02:10:29;99377.72;;;3.92;100.00
27984;BME280;15317;50.360;8.726;2023-12-20T02:15:34;99371.09;;;3.96;100.00
27984;BME280;15317;50.360;8.726;2023-12-20T02:20:38;99362.34;;;3.94;100.00
27984;BME280;15317;50.360;8.726;2023-12-20T02:30:53;99362.06;;;3.86;100.00
27984;BME280;15317;50.360;8.726;2023-12-20T02:35:56;99358.41;;;3.87;100.00
27984;BME280;15317;50.360;8.726;2023-12-20T02:40:59;99357.44;;;3.88;100.00
27984;BME280;15317;50.360;8.726;2023-12-20T02:46:04;99360.38;;;3.85;100.00
27984;BME280;15317;50.360;8.726;2023-12-20T02:51:07;99350.59;;;3.84;100.00
27984;BME280;15317;50.360;8.726;2023-12-20T02:56:11;99364.28;;;3.92;100.00
27984;BME280;15317;50.360;8.726;2023-12-20T03:01:17;99362.56;;;3.91;100.00
27984;BME280;15317;50.360;8.726;2023-12-20T03:06:22;99361.84;;;3.89;100.00
27984;BME280;15317;50.360;8.726;2023-12-20T03:11:26;99362.94;;;3.86;100.00
27984;BME280;15317;50.360;8.726;2023-12-20T03:16:31;99368.91;;;3.90;100.00
27984;BME280;15317;50.360;8.726;2023-12-20T03:21:38;99377.97;;;4.00;100.00
27984;BME280;15317;50.360;8.726;2023-12-20T03:26:41;99387.75;;;4.01;100.00
27984;BME280;15317;50.360;8.726;2023-12-20T03:31:46;99382.59;;;3.98;100.00
27984;BME280;15317;50.360;8.726;2023-12-20T03:36:49;99392.75;;;4.17;100.00
27984;BME280;15317;50.360;8.726;2023-12-20T03:41:53;99401.78;;;4.38;100.00
27984;BME280;15317;50.360;8.726;2023-12-20T03:46:57;99393.31;;;4.65;100.00
27984;BME280;15317;50.360;8.726;2023-12-20T03:52:00;99385.13;;;4.66;100.00
27984;BME280;15317;50.360;8.726;2023-12-20T03:57:05;99387.94;;;4.65;100.00
27984;BME280;15317;50.360;8.726;2023-12-20T04:02:09;99391.56;;;4.86;100.00
27984;BME280;15317;50.360;8.726;2023-12-20T04:07:13;99391.13;;;4.70;100.00
27984;BME280;15317;50.360;8.726;2023-12-20T04:12:17;99406.56;;;4.57;100.00
27984;BME280;15317;50.360;8.726;2023-12-20T04:17:21;99417.56;;;4.43;100.00
27984;BME280;15317;50.360;8.726;2023-12-20T04:22:25;99408.28;;;4.35;100.00
27984;BME280;15317;50.360;8.726;2023-12-20T04:27:28;99412.19;;;4.31;100.00
27984;BME280;15317;50.360;8.726;2023-12-20T04:32:33;99416.34;;;4.13;100.00
27984;BME280;15317;50.360;8.726;2023-12-20T04:37:37;99422.94;;;4.09;100.00
27984;BME280;15317;50.360;8.726;2023-12-20T04:42:40;99427.69;;;4.06;100.00
27984;BME280;15317;50.360;8.726;2023-12-20T04:47:45;99426.56;;;3.97;100.00
27984;BME280;15317;50.360;8.726;2023-12-20T04:52:50;99434.44;;;4.22;100.00
27984;BME280;15317;50.360;8.726;2023-12-20T04:57:54;99436.41;;;4.43;100.00
27984;BME280;15317;50.360;8.726;2023-12-20T05:02:59;99443.94;;;4.60;100.00
27984;BME280;15317;50.360;8.726;2023-12-20T05:08:03;99461.69;;;4.62;100.00
27984;BME280;15317;50.360;8.726;2023-12-20T05:13:06;99448.97;;;4.53;100.00
27984;BME280;15317;50.360;8.726;2023-12-20T05:18:12;99454.84;;;4.36;100.00
27984;BME280;15317;50.360;8.726;2023-12-20T05:23:15;99461.81;;;4.27;100.00
27984;BME280;15317;50.360;8.726;2023-12-20T05:28:19;99477.66;;;4.19;100.00
27984;BME280;15317;50.360;8.726;2023-12-20T05:33:24;99474.72;;;4.11;100.00
27984;BME280;15317;50.360;8.726;2023-12-20T05:38:28;99474.81;;;3.98;100.00
27984;BME280;15317;50.360;8.726;2023-12-20T05:43:31;99486.66;;;3.96;100.00
27984;BME280;15317;50.360;8.726;2023-12-20T05:48:36;99489.81;;;3.90;100.00
27984;BME280;15317;50.360;8.726;2023-12-20T05:53:39;99474.22;;;3.95;100.00
27984;BME280;15317;50.360;8.726;2023-12-20T05:58:42;99484.31;;;3.91;100.00
27984;BME280;15317;50.360;8.726;2023-12-20T06:03:47;99477.97;;;3.81;100.00
27984;BME280;15317;50.360;8.726;2023-12-20T06:08:50;99489.31;;;3.85;100.00
27984;BME280;15317;50.360;8.726;2023-12-20T06:13:53;99503.97;;;3.81;100.00
27984;BME280;15317;50.360;8.726;2023-12-20T06:18:58;99506.13;;;3.76;100.00
27984;BME280;15317;50.360;8.726;2023-12-20T06:24:01;99505.75;;;3.69;100.00
27984;BME280;15317;50.360;8.726;2023-12-20T06:29:05;99495.25;;;3.66;100.00
27984;BME280;15317;50.360;8.726;2023-12-20T06:34:09;99508.22;;;3.48;100.00
27984;BME280;15317;50.360;8.726;2023-12-20T06:39:13;99509.25;;;3.58;100.00
27984;BME280;15317;50.360;8.726;2023-12-20T06:44:16;99521.84;;;3.69;100.00
27984;BME280;15317;50.360;8.726;2023-12-20T06:49:21;99523.03;;;3.54;100.00
27984;BME280;15317;50.360;8.726;2023-12-20T06:54:24;99528.22;;;3.44;100.00
27984;BME280;15317;50.360;8.726;2023-12-20T06:59:28;99532.44;;;3.60;100.00
27984;BME280;15317;50.360;8.726;2023-12-20T07:04:32;99510.44;;;3.78;100.00
27984;BME280;15317;50.360;8.726;2023-12-20T07:09:36;99525.06;;;3.74;100.00
27984;BME280;15317;50.360;8.726;2023-12-20T07:14:40;99531.75;;;3.69;100.00
27984;BME280;15317;50.360;8.726;2023-12-20T07:19:45;99532.19;;;3.63;100.00
27984;BME280;15317;50.360;8.726;2023-12-20T07:24:49;99528.16;;;3.57;100.00
27984;BME280;15317;50.360;8.726;2023-12-20T07:29:54;99536.56;;;3.52;100.00
27984;BME280;15317;50.360;8.726;2023-12-20T07:34:59;99537.34;;;3.66;100.00
27984;BME280;15317;50.360;8.726;2023-12-20T07:40:03;99540.09;;;3.77;100.00
27984;BME280;15317;50.360;8.726;2023-12-20T07:45:07;99522.63;;;3.82;100.00
27984;BME280;15317;50.360;8.726;2023-12-20T07:50:12;99535.47;;;3.79;100.00
27984;BME280;15317;50.360;8.726;2023-12-20T07:55:15;99549.66;;;3.81;100.00
27984;BME280;15317;50.360;8.726;2023-12-20T08:00:19;99553.81;;;3.85;100.00
27984;BME280;15317;50.360;8.726;2023-12-20T08:05:24;99567.53;;;3.93;100.00
27984;BME280;15317;50.360;8.726;2023-12-20T08:10:27;99557.56;;;4.06;100.00
27984;BME280;15317;50.360;8.726;2023-12-20T08:15:32;99563.09;;;4.16;100.00
27984;BME280;15317;50.360;8.726;2023-12-20T08:20:36;99558.81;;;4.24;100.00
27984;BME280;15317;50.360;8.726;2023-12-20T08:25:42;99566.41;;;4.30;100.00
27984;BME280;15317;50.360;8.726;2023-12-20T08:30:45;99562.91;;;4.41;100.00
27984;BME280;15317;50.360;8.726;2023-12-20T08:35:50;99558.28;;;4.54;100.00
27984;BME280;15317;50.360;8.726;2023-12-20T08:40:54;99563.53;;;4.67;100.00
27984;BME280;15317;50.360;8.726;2023-12-20T08:45:57;99552.06;;;4.87;100.00
27984;BME280;15317;50.360;8.726;2023-12-20T08:51:02;99550.09;;;5.11;100.00
27984;BME280;15317;50.360;8.726;2023-12-20T08:56:06;99546.13;;;5.27;100.00
27984;BME280;15317;50.360;8.726;2023-12-20T09:01:09;99551.94;;;5.65;100.00
27984;BME280;15317;50.360;8.726;2023-12-20T09:06:14;99550.28;;;6.17;100.00
27984;BME280;15317;50.360;8.726;2023-12-20T09:11:18;99543.75;;;5.99;100.00
27984;BME280;15317;50.360;8.726;2023-12-20T09:16:21;99543.66;;;5.89;100.00
27984;BME280;15317;50.360;8.726;2023-12-20T09:21:26;99545.78;;;5.74;100.00
27984;BME280;15317;50.360;8.726;2023-12-20T09:26:29;99563.56;;;5.66;100.00
27984;BME280;15317;50.360;8.726;2023-12-20T09:31:32;99558.78;;;5.69;100.00
27984;BME280;15317;50.360;8.726;2023-12-20T09:36:37;99570.31;;;5.60;100.00
27984;BME280;15317;50.360;8.726;2023-12-20T09:41:45;99556.47;;;5.65;100.00
27984;BME280;15317;50.360;8.726;2023-12-20T09:46:52;99559.13;;;5.76;100.00
27984;BME280;15317;50.360;8.726;2023-12-20T09:52:00;99557.25;;;5.87;100.00
27984;BME280;15317;50.360;8.726;2023-12-20T09:57:04;99555.31;;;5.89;100.00
27984;BME280;15317;50.360;8.726;2023-12-20T10:02:12;99544.00;;;5.95;100.00
27984;BME280;15317;50.360;8.726;2023-12-20T10:07:17;99549.38;;;6.27;100.00
27984;BME280;15317;50.360;8.726;2023-12-20T10:12:22;99541.53;;;6.45;100.00
27984;BME280;15317;50.360;8.726;2023-12-20T10:17:27;99527.78;;;6.48;100.00
27984;BME280;15317;50.360;8.726;2023-12-20T10:22:33;99511.50;;;6.59;100.00
27984;BME280;15317;50.360;8.726;2023-12-20T10:27:37;99505.53;;;6.86;100.00
27984;BME280;15317;50.360;8.726;2023-12-20T10:32:40;99493.91;;;7.54;100.00
27984;BME280;15317;50.360;8.726;2023-12-20T10:37:45;99492.63;;;7.97;100.00
27984;BME280;15317;50.360;8.726;2023-12-20T10:42:50;99495.88;;;8.29;100.00
27984;BME280;15317;50.360;8.726;2023-12-20T10:47:55;99482.38;;;8.76;100.00
27984;BME280;15317;50.360;8.726;2023-12-20T10:53:01;99492.22;;;9.04;100.00
27984;BME280;15317;50.360;8.726;2023-12-20T10:58:07;99477.78;;;8.86;100.00
27984;BME280;15317;50.360;8.726;2023-12-20T11:03:11;99478.47;;;8.88;100.00
27984;BME280;15317;50.360;8.726;2023-12-20T11:08:29;99482.03;;;9.16;100.00
27984;BME280;15317;50.360;8.726;2023-12-20T11:13:37;99468.44;;;9.26;100.00
27984;BME280;15317;50.360;8.726;2023-12-20T11:18:44;99473.56;;;9.01;100.00
27984;BME280;15317;50.360;8.726;2023-12-20T11:23:49;99464.47;;;8.65;100.00
27984;BME280;15317;50.360;8.726;2023-12-20T11:28:53;99454.88;;;8.15;100.00
27984;BME280;15317;50.360;8.726;2023-12-20T11:34:12;99461.75;;;7.61;100.00
27984;BME280;15317;50.360;8.726;2023-12-20T11:39:20;99467.28;;;7.40;100.00
27984;BME280;15317;50.360;8.726;2023-12-20T11:44:25;99463.69;;;7.30;100.00
27984;BME280;15317;50.360;8.726;2023-12-20T11:49:29;99458.59;;;7.27;100.00
27984;BME280;15317;50.360;8.726;2023-12-20T11:54:34;99465.56;;;7.39;100.00
27984;BME280;15317;50.360;8.726;2023-12-20T11:59:37;99462.56;;;7.23;100.00
27984;BME280;15317;50.360;8.726;2023-12-20T12:04:41;99444.38;;;7.16;100.00
27984;BME280;15317;50.360;8.726;2023-12-20T12:09:46;99436.91;;;6.89;100.00
27984;BME280;15317;50.360;8.726;2023-12-20T12:14:50;99437.00;;;6.78;100.00
27984;BME280;15317;50.360;8.726;2023-12-20T12:20:01;99435.66;;;6.62;100.00
27984;BME280;15317;50.360;8.726;2023-12-20T12:25:13;99445.28;;;6.55;100.00
27984;BME280;15317;50.360;8.726;2023-12-20T12:30:17;99424.66;;;6.45;100.00
27984;BME280;15317;50.360;8.726;2023-12-20T12:35:21;99420.78;;;6.38;100.00
27984;BME280;15317;50.360;8.726;2023-12-20T12:40:26;99414.22;;;6.30;100.00
27984;BME280;15317;50.360;8.726;2023-12-20T12:45:29;99407.72;;;6.33;100.00
27984;BME280;15317;50.360;8.726;2023-12-20T12:50:32;99377.06;;;6.34;100.00
27984;BME280;15317;50.360;8.726;2023-12-20T12:55:37;99396.94;;;6.33;100.00
27984;BME280;15317;50.360;8.726;2023-12-20T13:00:40;99382.78;;;6.41;100.00
27984;BME280;15317;50.360;8.726;2023-12-20T13:05:44;99382.97;;;6.58;100.00
27984;BME280;15317;50.360;8.726;2023-12-20T13:10:50;99372.47;;;6.65;100.00
27984;BME280;15317;50.360;8.726;2023-12-20T13:15:53;99360.41;;;6.59;100.00
27984;BME280;15317;50.360;8.726;2023-12-20T13:20:57;99348.88;;;6.57;100.00
27984;BME280;15317;50.360;8.726;2023-12-20T13:26:01;99347.16;;;6.56;100.00
27984;BME280;15317;50.360;8.726;2023-12-20T13:31:05;99333.53;;;6.58;100.00
27984;BME280;15317;50.360;8.726;2023-12-20T13:36:08;99334.53;;;6.57;100.00
27984;BME280;15317;50.360;8.726;2023-12-20T13:41:13;99331.94;;;6.46;100.00
27984;BME280;15317;50.360;8.726;2023-12-20T13:46:16;99330.19;;;6.35;100.00
27984;BME280;15317;50.360;8.726;2023-12-20T13:51:19;99325.81;;;6.34;100.00
27984;BME280;15317;50.360;8.726;2023-12-20T13:56:25;99337.72;;;6.31;100.00
27984;BME280;15317;50.360;8.726;2023-12-20T14:01:28;99333.88;;;6.24;100.00
27984;BME280;15317;50.360;8.726;2023-12-20T14:06:32;99326.22;;;6.29;100.00
27984;BME280;15317;50.360;8.726;2023-12-20T14:11:37;99329.63;;;6.31;100.00
27984;BME280;15317;50.360;8.726;2023-12-20T14:16:43;99316.81;;;6.24;100.00
27984;BME280;15317;50.360;8.726;2023-12-20T14:21:47;99309.84;;;6.21;100.00
27984;BME280;15317;50.360;8.726;2023-12-20T14:26:51;99317.72;;;6.34;100.00
27984;BME280;15317;50.360;8.726;2023-12-20T14:31:55;99301.81;;;6.31;100.00
27984;BME280;15317;50.360;8.726;2023-12-20T14:36:58;99306.66;;;6.37;100.00
27984;BME280;15317;50.360;8.726;2023-12-20T14:42:03;99307.06;;;6.32;100.00
27984;BME280;15317;50.360;8.726;2023-12-20T14:47:06;99305.78;;;6.37;100.00
27984;BME280;15317;50.360;8.726;2023-12-20T14:52:10;99296.72;;;6.38;100.00
27984;BME280;15317;50.360;8.726;2023-12-20T14:57:15;99310.34;;;6.36;100.00
27984;BME280;15317;50.360;8.726;2023-12-20T15:02:19;99296.66;;;6.28;100.00
27984;BME280;15317;50.360;8.726;2023-12-20T15:07:23;99288.56;;;6.18;100.00
27984;BME280;15317;50.360;8.726;2023-12-20T15:12:27;99293.84;;;6.20;100.00
27984;BME280;15317;50.360;8.726;2023-12-20T15:17:30;99301.75;;;6.21;100.00
27984;BME280;15317;50.360;8.726;2023-12-20T15:22:34;99301.47;;;6.15;100.00
27984;BME280;15317;50.360;8.726;2023-12-20T15:27:38;99302.47;;;6.14;100.00
27984;BME280;15317;50.360;8.726;2023-12-20T15:32:42;99298.88;;;6.04;100.00
27984;BME280;15317;50.360;8.726;2023-12-20T15:37:45;99294.91;;;6.08;100.00
27984;BME280;15317;50.360;8.726;2023-12-20T15:42:50;99302.84;;;6.09;100.00
27984;BME280;15317;50.360;8.726;2023-12-20T15:47:53;99299.13;;;6.01;100.00
27984;BME280;15317;50.360;8.726;2023-12-20T15:52:57;99300.84;;;6.02;100.00
27984;BME280;15317;50.360;8.726;2023-12-20T15:58:01;99289.78;;;6.05;100.00
27984;BME280;15317;50.360;8.726;2023-12-20T16:03:05;99282.94;;;6.01;100.00
27984;BME280;15317;50.360;8.726;2023-12-20T16:08:24;99281.72;;;6.05;100.00
27984;BME280;15317;50.360;8.726;2023-12-20T16:13:29;99289.78;;;6.05;100.00
27984;BME280;15317;50.360;8.726;2023-12-20T16:18:33;99290.84;;;6.13;100.00
27984;BME280;15317;50.360;8.726;2023-12-20T16:23:37;99302.91;;;6.19;100.00
27984;BME280;15317;50.360;8.726;2023-12-20T16:28:42;99304.88;;;6.17;100.00
27984;BME280;15317;50.360;8.726;2023-12-20T16:33:45;99311.69;;;6.11;100.00
27984;BME280;15317;50.360;8.726;2023-12-20T16:38:48;99307.09;;;6.02;100.00
27984;BME280;15317;50.360;8.726;2023-12-20T16:43:53;99302.25;;;5.96;100.00
27984;BME280;15317;50.360;8.726;2023-12-20T16:48:56;99310.47;;;5.94;100.00
27984;BME280;15317;50.360;8.726;2023-12-20T16:54:00;99301.47;;;5.84;100.00
27984;BME280;15317;50.360;8.726;2023-12-20T16:59:04;99299.63;;;5.85;100.00
27984;BME280;15317;50.360;8.726;2023-12-20T17:04:08;99286.09;;;5.75;100.00
27984;BME280;15317;50.360;8.726;2023-12-20T17:09:11;99295.88;;;5.76;100.00
27984;BME280;15317;50.360;8.726;2023-12-20T17:14:16;99292.06;;;6.00;100.00
27984;BME280;15317;50.360;8.726;2023-12-20T17:19:19;99285.81;;;6.09;100.00
27984;BME280;15317;50.360;8.726;2023-12-20T17:24:22;99296.06;;;6.15;100.00
27984;BME280;15317;50.360;8.726;2023-12-20T17:29:27;99288.75;;;6.26;100.00
27984;BME280;15317;50.360;8.726;2023-12-20T17:34:30;99295.44;;;6.32;100.00
27984;BME280;15317;50.360;8.726;2023-12-20T17:39:34;99286.06;;;6.36;100.00
27984;BME280;15317;50.360;8.726;2023-12-20T17:44:39;99296.97;;;6.25;100.00
27984;BME280;15317;50.360;8.726;2023-12-20T17:49:42;99290.72;;;6.24;100.00
27984;BME280;15317;50.360;8.726;2023-12-20T17:54:45;99301.94;;;6.29;100.00
27984;BME280;15317;50.360;8.726;2023-12-20T17:59:50;99298.06;;;6.22;100.00
27984;BME280;15317;50.360;8.726;2023-12-20T18:04:53;99283.47;;;6.25;100.00
27984;BME280;15317;50.360;8.726;2023-12-20T18:09:56;99280.78;;;6.25;100.00
27984;BME280;15317;50.360;8.726;2023-12-20T18:15:01;99281.34;;;6.19;100.00
27984;BME280;15317;50.360;8.726;2023-12-20T18:20:05;99281.72;;;6.14;100.00
27984;BME280;15317;50.360;8.726;2023-12-20T18:25:09;99281.59;;;6.16;100.00
27984;BME280;15317;50.360;8.726;2023-12-20T18:30:14;99284.13;;;6.08;100.00
27984;BME280;15317;50.360;8.726;2023-12-20T18:35:18;99277.19;;;6.15;100.00
27984;BME280;15317;50.360;8.726;2023-12-20T18:40:22;99278.88;;;6.06;100.00
27984;BME280;15317;50.360;8.726;2023-12-20T18:45:30;99271.91;;;6.04;100.00
27984;BME280;15317;50.360;8.726;2023-12-20T18:50:33;99274.88;;;6.01;100.00
27984;BME280;15317;50.360;8.726;2023-12-20T18:55:36;99270.19;;;6.03;100.00
27984;BME280;15317;50.360;8.726;2023-12-20T19:00:41;99261.38;;;5.91;100.00
27984;BME280;15317;50.360;8.726;2023-12-20T19:05:44;99248.28;;;5.86;100.00
27984;BME280;15317;50.360;8.726;2023-12-20T19:10:47;99248.78;;;5.80;100.00
27984;BME280;15317;50.360;8.726;2023-12-20T19:15:52;99244.41;;;5.79;100.00
27984;BME280;15317;50.360;8.726;2023-12-20T19:20:55;99229.31;;;5.67;100.00
27984;BME280;15317;50.360;8.726;2023-12-20T19:25:59;99224.53;;;5.80;100.00
27984;BME280;15317;50.360;8.726;2023-12-20T19:31:06;99223.56;;;5.81;100.00
27984;BME280;15317;50.360;8.726;2023-12-20T19:36:11;99219.44;;;6.17;100.00
27984;BME280;15317;50.360;8.726;2023-12-20T19:41:17;99214.00;;;6.08;100.00
27984;BME280;15317;50.360;8.726;2023-12-20T19:46:21;99215.28;;;6.04;100.00
27984;BME280;15317;50.360;8.726;2023-12-20T19:51:24;99199.19;;;6.32;100.00
27984;BME280;15317;50.360;8.726;2023-12-20T19:56:27;99176.31;;;6.17;100.00
27984;BME280;15317;50.360;8.726;2023-12-20T20:01:32;99184.53;;;6.16;100.00
27984;BME280;15317;50.360;8.726;2023-12-20T20:06:37;99170.06;;;6.36;100.00
27984;BME280;15317;50.360;8.726;2023-12-20T20:11:40;99163.53;;;6.39;100.00
27984;BME280;15317;50.360;8.726;2023-12-20T20:16:45;99152.31;;;6.43;100.00
27984;BME280;15317;50.360;8.726;2023-12-20T20:21:50;99164.38;;;6.29;100.00
27984;BME280;15317;50.360;8.726;2023-12-20T20:26:53;99139.13;;;6.21;100.00
27984;BME280;15317;50.360;8.726;2023-12-20T20:31:58;99144.78;;;6.08;100.00
27984;BME280;15317;50.360;8.726;2023-12-20T20:37:02;99147.03;;;5.93;100.00
27984;BME280;15317;50.360;8.726;2023-12-20T20:42:05;99140.72;;;5.83;100.00
27984;BME280;15317;50.360;8.726;2023-12-20T20:47:10;99150.09;;;5.79;100.00
27984;BME280;15317;50.360;8.726;2023-12-20T20:52:13;99146.81;;;5.76;100.00
27984;BME280;15317;50.360;8.726;2023-12-20T20:57:17;99135.72;;;5.69;100.00
27984;BME280;15317;50.360;8.726;2023-12-20T21:02:21;99118.28;;;5.64;100.00
27984;BME280;15317;50.360;8.726;2023-12-20T21:07:26;99119.69;;;5.58;100.00
27984;BME280;15317;50.360;8.726;2023-12-20T21:12:29;99121.41;;;5.59;100.00
27984;BME280;15317;50.360;8.726;2023-12-20T21:17:34;99113.44;;;5.57;100.00
27984;BME280;15317;50.360;8.726;2023-12-20T21:22:38;99089.75;;;5.61;100.00
27984;BME280;15317;50.360;8.726;2023-12-20T21:27:42;99084.94;;;5.55;100.00
27984;BME280;15317;50.360;8.726;2023-12-20T21:32:47;99088.66;;;5.64;100.00
27984;BME280;15317;50.360;8.726;2023-12-20T21:37:51;99063.53;;;5.63;100.00
27984;BME280;15317;50.360;8.726;2023-12-20T21:42:54;99053.03;;;5.60;100.00
27984;BME280;15317;50.360;8.726;2023-12-20T21:47:59;99045.66;;;5.62;100.00
27984;BME280;15317;50.360;8.726;2023-12-20T21:53:03;99057.31;;;5.63;100.00
27984;BME280;15317;50.360;8.726;2023-12-20T21:58:12;99034.34;;;5.68;100.00
27984;BME280;15317;50.360;8.726;2023-12-20T22:03:16;99038.72;;;5.69;100.00
27984;BME280;15317;50.360;8.726;2023-12-20T22:08:20;99017.75;;;5.73;100.00
27984;BME280;15317;50.360;8.726;2023-12-20T22:13:23;99020.72;;;5.70;100.00
27984;BME280;15317;50.360;8.726;2023-12-20T22:18:29;99017.91;;;5.71;100.00
27984;BME280;15317;50.360;8.726;2023-12-20T22:23:32;99026.53;;;5.75;100.00
27984;BME280;15317;50.360;8.726;2023-12-20T22:28:35;98999.72;;;5.73;100.00
27984;BME280;15317;50.360;8.726;2023-12-20T22:33:40;98991.81;;;5.72;100.00
27984;BME280;15317;50.360;8.726;2023-12-20T22:38:43;98984.44;;;5.64;100.00
27984;BME280;15317;50.360;8.726;2023-12-20T22:43:47;98991.22;;;5.68;100.00
27984;BME280;15317;50.360;8.726;2023-12-20T22:48:52;98988.38;;;5.60;100.00
27984;BME280;15317;50.360;8.726;2023-12-20T22:53:55;98979.31;;;5.61;100.00
27984;BME280;15317;50.360;8.726;2023-12-20T22:58:59;98976.63;;;5.61;100.00
27984;BME280;15317;50.360;8.726;2023-12-20T23:04:04;98967.09;;;5.67;100.00
27984;BME280;15317;50.360;8.726;2023-12-20T23:09:07;98938.91;;;5.71;100.00
27984;BME280;15317;50.360;8.726;2023-12-20T23:14:11;98935.63;;;5.67;100.00
27984;BME280;15317;50.360;8.726;2023-12-20T23:19:19;98951.22;;;5.73;100.00
27984;BME280;15317;50.360;8.726;2023-12-20T23:24:23;98963.16;;;5.71;100.00
27984;BME280;15317;50.360;8.726;2023-12-20T23:29:27;98963.72;;;5.74;100.00
27984;BME280;15317;50.360;8.726;2023-12-20T23:34:31;98960.16;;;5.74;100.00
27984;BME280;15317;50.360;8.726;2023-12-20T23:39:34;98944.44;;;5.79;100.00
27984;BME280;15317;50.360;8.726;2023-12-20T23:44:37;98926.97;;;5.73;100.00
27984;BME280;15317;50.360;8.726;2023-12-20T23:49:42;98933.38;;;5.72;100.00
27984;BME280;15317;50.360;8.726;2023-12-20T23:54:45;98919.19;;;5.80;100.00
27984;BME280;15317;50.360;8.726;2023-12-20T23:59:50;98895.94;;;5.79;100.00
